sensor_id;sensor_type;location;lat;lon;timestamp;P1;durP1;ratioP1;P2;durP2;ratioP2
21258;SDS011;10787;53.364;-1.480;2024-02-26T00:01:20;12.77;;;7.93;;
21258;SDS011;10787;53.364;-1.480;2024-02-26T00:04:05;13.73;;;7.67;;
21258;SDS011;10787;53.364;-1.480;2024-02-26T00:06:49;12.27;;;7.23;;
21258;SDS011;10787;53.364;-1.480;2024-02-26T00:09:34;12.27;;;7.23;;
21258;SDS011;10787;53.364;-1.480;2024-02-26T00:12:20;13.53;;;7.10;;
21258;SDS011;10787;53.364;-1.480;2024-02-26T00:15:05;11.90;;;7.27;;
21258;SDS011;10787;53.364;-1.480;2024-02-26T00:17:50;10.77;;;6.53;;
21258;SDS011;10787;53.364;-1.480;2024-02-26T00:20:35;10.90;;;6.90;;
21258;SDS011;10787;53.364;-1.480;2024-02-26T00:23:19;15.97;;;7.10;;
21258;SDS011;10787;53.364;-1.480;2024-02-26T00:26:04;12.17;;;6.60;;
21258;SDS011;10787;53.364;-1.480;2024-02-26T00:28:48;12.53;;;7.07;;
21258;SDS011;10787;53.364;-1.480;2024-02-26T00:31:32;14.53;;;7.20;;
21258;SDS011;10787;53.364;-1.480;2024-02-26T00:34:17;12.60;;;7.17;;
21258;SDS011;10787;53.364;-1.480;2024-02-26T00:37:01;11.27;;;6.90;;
21258;SDS011;10787;53.364;-1.480;2024-02-26T00:39:46;12.70;;;6.40;;
21258;SDS011;10787;53.364;-1.480;2024-02-26T00:42:31;14.43;;;6.83;;
21258;SDS011;10787;53.364;-1.480;2024-02-26T00:45:15;10.33;;;6.40;;
21258;SDS011;10787;53.364;-1.480;2024-02-26T00:48:00;12.93;;;6.53;;
21258;SDS011;10787;53.364;-1.480;2024-02-26T00:50:53;11.67;;;6.33;;
21258;SDS011;10787;53.364;-1.480;2024-02-26T00:53:37;14.30;;;6.37;;
21258;SDS011;10787;53.364;-1.480;2024-02-26T00:56:21;11.10;;;6.57;;
21258;SDS011;10787;53.364;-1.480;2024-02-26T00:59:05;14.43;;;6.20;;
21258;SDS011;10787;53.364;-1.480;2024-02-26T01:01:50;10.37;;;5.63;;
21258;SDS011;10787;53.364;-1.480;2024-02-26T01:04:34;10.73;;;5.77;;
21258;SDS011;10787;53.364;-1.480;2024-02-26T01:07:19;11.57;;;5.93;;
21258;SDS011;10787;53.364;-1.480;2024-02-26T01:10:03;9.97;;;5.60;;
21258;SDS011;10787;53.364;-1.480;2024-02-26T01:12:48;10.93;;;5.93;;
21258;SDS011;10787;53.364;-1.480;2024-02-26T01:15:33;13.33;;;5.70;;
21258;SDS011;10787;53.364;-1.480;2024-02-26T01:18:17;10.70;;;5.70;;
21258;SDS011;10787;53.364;-1.480;2024-02-26T01:21:01;11.60;;;5.50;;
21258;SDS011;10787;53.364;-1.480;2024-02-26T01:23:48;13.67;;;5.30;;
21258;SDS011;10787;53.364;-1.480;2024-02-26T01:26:32;14.73;;;5.33;;
21258;SDS011;10787;53.364;-1.480;2024-02-26T01:29:16;11.17;;;4.90;;
21258;SDS011;10787;53.364;-1.480;2024-02-26T01:32:00;10.10;;;5.00;;
21258;SDS011;10787;53.364;-1.480;2024-02-26T01:34:45;9.70;;;4.63;;
21258;SDS011;10787;53.364;-1.480;2024-02-26T01:37:29;11.97;;;4.73;;
21258;SDS011;10787;53.364;-1.480;2024-02-26T01:40:14;10.53;;;4.50;;
21258;SDS011;10787;53.364;-1.480;2024-02-26T01:43:03;11.73;;;4.70;;
21258;SDS011;10787;53.364;-1.480;2024-02-26T01:45:47;8.73;;;4.60;;
21258;SDS011;10787;53.364;-1.480;2024-02-26T01:48:32;11.57;;;5.03;;
21258;SDS011;10787;53.364;-1.480;2024-02-26T01:51:16;10.03;;;4.90;;
21258;SDS011;10787;53.364;-1.480;2024-02-26T01:54:02;10.60;;;4.83;;
21258;SDS011;10787;53.364;-1.480;2024-02-26T01:56:47;10.70;;;5.07;;
21258;SDS011;10787;53.364;-1.480;2024-02-26T01:59:34;10.50;;;4.63;;
21258;SDS011;10787;53.364;-1.480;2024-02-26T02:02:19;11.77;;;4.80;;
21258;SDS011;10787;53.364;-1.480;2024-02-26T02:05:04;13.77;;;5.00;;
21258;SDS011;10787;53.364;-1.480;2024-02-26T02:07:50;12.63;;;4.57;;
21258;SDS011;10787;53.364;-1.480;2024-02-26T02:10:35;12.63;;;4.80;;
21258;SDS011;10787;53.364;-1.480;2024-02-26T02:13:21;10.90;;;4.50;;
21258;SDS011;10787;53.364;-1.480;2024-02-26T02:16:05;12.77;;;4.80;;
21258;SDS011;10787;53.364;-1.480;2024-02-26T02:18:50;10.37;;;4.40;;
21258;SDS011;10787;53.364;-1.480;2024-02-26T02:21:34;12.50;;;4.57;;
21258;SDS011;10787;53.364;-1.480;2024-02-26T02:24:18;8.27;;;3.87;;
21258;SDS011;10787;53.364;-1.480;2024-02-26T02:27:03;11.10;;;4.47;;
21258;SDS011;10787;53.364;-1.480;2024-02-26T02:29:48;10.67;;;4.40;;
21258;SDS011;10787;53.364;-1.480;2024-02-26T02:32:33;11.80;;;4.80;;
21258;SDS011;10787;53.364;-1.480;2024-02-26T02:35:17;9.77;;;4.00;;
21258;SDS011;10787;53.364;-1.480;2024-02-26T02:38:01;9.07;;;3.83;;
21258;SDS011;10787;53.364;-1.480;2024-02-26T02:40:46;8.87;;;4.20;;
21258;SDS011;10787;53.364;-1.480;2024-02-26T02:43:30;11.63;;;4.27;;
21258;SDS011;10787;53.364;-1.480;2024-02-26T02:46:15;6.37;;;3.87;;
21258;SDS011;10787;53.364;-1.480;2024-02-26T02:48:59;7.93;;;3.60;;
21258;SDS011;10787;53.364;-1.480;2024-02-26T02:51:43;10.20;;;3.60;;
21258;SDS011;10787;53.364;-1.480;2024-02-26T02:54:27;8.63;;;3.73;;
21258;SDS011;10787;53.364;-1.480;2024-02-26T02:57:11;9.80;;;3.63;;
21258;SDS011;10787;53.364;-1.480;2024-02-26T02:59:56;8.67;;;3.70;;
21258;SDS011;10787;53.364;-1.480;2024-02-26T03:02:40;10.20;;;3.43;;
21258;SDS011;10787;53.364;-1.480;2024-02-26T03:05:25;7.60;;;3.67;;
21258;SDS011;10787;53.364;-1.480;2024-02-26T03:08:09;8.53;;;3.60;;
21258;SDS011;10787;53.364;-1.480;2024-02-26T03:10:53;10.30;;;3.80;;
21258;SDS011;10787;53.364;-1.480;2024-02-26T03:13:38;10.47;;;3.47;;
21258;SDS011;10787;53.364;-1.480;2024-02-26T03:16:22;8.87;;;3.50;;
21258;SDS011;10787;53.364;-1.480;2024-02-26T03:19:07;8.23;;;3.47;;
21258;SDS011;10787;53.364;-1.480;2024-02-26T03:21:51;9.83;;;3.73;;
21258;SDS011;10787;53.364;-1.480;2024-02-26T03:24:35;7.33;;;3.57;;
21258;SDS011;10787;53.364;-1.480;2024-02-26T03:27:19;8.67;;;3.43;;
21258;SDS011;10787;53.364;-1.480;2024-02-26T03:30:03;8.10;;;3.70;;
21258;SDS011;10787;53.364;-1.480;2024-02-26T03:32:48;9.53;;;3.50;;
21258;SDS011;10787;53.364;-1.480;2024-02-26T03:35:33;5.93;;;3.27;;
21258;SDS011;10787;53.364;-1.480;2024-02-26T03:38:17;8.53;;;3.40;;
21258;SDS011;10787;53.364;-1.480;2024-02-26T03:41:02;9.77;;;3.30;;
21258;SDS011;10787;53.364;-1.480;2024-02-26T03:43:46;8.10;;;3.27;;
21258;SDS011;10787;53.364;-1.480;2024-02-26T03:46:31;6.93;;;3.13;;
21258;SDS011;10787;53.364;-1.480;2024-02-26T03:49:15;8.20;;;3.30;;
21258;SDS011;10787;53.364;-1.480;2024-02-26T03:52:00;6.40;;;2.60;;
21258;SDS011;10787;53.364;-1.480;2024-02-26T03:54:44;7.77;;;3.10;;
21258;SDS011;10787;53.364;-1.480;2024-02-26T03:57:28;6.03;;;2.77;;
21258;SDS011;10787;53.364;-1.480;2024-02-26T04:00:13;10.00;;;3.10;;
21258;SDS011;10787;53.364;-1.480;2024-02-26T04:02:58;7.43;;;3.10;;
21258;SDS011;10787;53.364;-1.480;2024-02-26T04:05:42;7.57;;;3.10;;
21258;SDS011;10787;53.364;-1.480;2024-02-26T04:08:26;7.67;;;3.03;;
21258;SDS011;10787;53.364;-1.480;2024-02-26T04:11:10;8.40;;;3.20;;
21258;SDS011;10787;53.364;-1.480;2024-02-26T04:13:54;11.00;;;3.30;;
21258;SDS011;10787;53.364;-1.480;2024-02-26T04:16:38;8.70;;;3.50;;
21258;SDS011;10787;53.364;-1.480;2024-02-26T04:19:22;9.07;;;3.13;;
21258;SDS011;10787;53.364;-1.480;2024-02-26T04:22:07;8.27;;;3.13;;
21258;SDS011;10787;53.364;-1.480;2024-02-26T04:24:51;12.87;;;3.13;;
21258;SDS011;10787;53.364;-1.480;2024-02-26T04:27:35;7.93;;;2.97;;
21258;SDS011;10787;53.364;-1.480;2024-02-26T04:30:19;8.27;;;3.03;;
21258;SDS011;10787;53.364;-1.480;2024-02-26T04:33:04;8.50;;;2.90;;
21258;SDS011;10787;53.364;-1.480;2024-02-26T04:35:48;6.50;;;2.83;;
21258;SDS011;10787;53.364;-1.480;2024-02-26T04:38:33;7.40;;;3.00;;
21258;SDS011;10787;53.364;-1.480;2024-02-26T04:41:18;13.87;;;3.20;;
21258;SDS011;10787;53.364;-1.480;2024-02-26T04:44:02;7.20;;;2.97;;
21258;SDS011;10787;53.364;-1.480;2024-02-26T04:46:46;9.80;;;2.77;;
21258;SDS011;10787;53.364;-1.480;2024-02-26T04:49:30;9.37;;;3.10;;
21258;SDS011;10787;53.364;-1.480;2024-02-26T04:52:15;8.30;;;2.70;;
21258;SDS011;10787;53.364;-1.480;2024-02-26T04:54:59;7.13;;;3.00;;
21258;SDS011;10787;53.364;-1.480;2024-02-26T04:57:43;9.20;;;2.90;;
21258;SDS011;10787;53.364;-1.480;2024-02-26T05:00:28;7.30;;;3.27;;
21258;SDS011;10787;53.364;-1.480;2024-02-26T05:03:12;8.57;;;3.40;;
21258;SDS011;10787;53.364;-1.480;2024-02-26T05:05:58;6.40;;;3.00;;
21258;SDS011;10787;53.364;-1.480;2024-02-26T05:08:44;7.20;;;3.10;;
21258;SDS011;10787;53.364;-1.480;2024-02-26T05:11:29;8.83;;;3.30;;
21258;SDS011;10787;53.364;-1.480;2024-02-26T05:14:13;7.43;;;3.10;;
21258;SDS011;10787;53.364;-1.480;2024-02-26T05:16:57;9.23;;;3.17;;
21258;SDS011;10787;53.364;-1.480;2024-02-26T05:19:41;8.63;;;3.17;;
21258;SDS011;10787;53.364;-1.480;2024-02-26T05:22:26;8.97;;;3.30;;
21258;SDS011;10787;53.364;-1.480;2024-02-26T05:25:10;7.90;;;3.00;;
21258;SDS011;10787;53.364;-1.480;2024-02-26T05:27:54;8.37;;;3.27;;
21258;SDS011;10787;53.364;-1.480;2024-02-26T05:30:39;7.33;;;2.67;;
21258;SDS011;10787;53.364;-1.480;2024-02-26T05:33:24;10.70;;;3.30;;
21258;SDS011;10787;53.364;-1.480;2024-02-26T05:36:09;6.53;;;3.50;;
21258;SDS011;10787;53.364;-1.480;2024-02-26T05:38:53;8.87;;;3.23;;
21258;SDS011;10787;53.364;-1.480;2024-02-26T05:41:38;7.53;;;3.10;;
21258;SDS011;10787;53.364;-1.480;2024-02-26T05:44:22;8.30;;;3.10;;
21258;SDS011;10787;53.364;-1.480;2024-02-26T05:47:10;8.17;;;3.23;;
21258;SDS011;10787;53.364;-1.480;2024-02-26T05:49:54;8.73;;;3.50;;
21258;SDS011;10787;53.364;-1.480;2024-02-26T05:52:39;8.57;;;3.43;;
21258;SDS011;10787;53.364;-1.480;2024-02-26T05:55:24;8.63;;;3.37;;
21258;SDS011;10787;53.364;-1.480;2024-02-26T05:58:08;10.23;;;3.90;;
21258;SDS011;10787;53.364;-1.480;2024-02-26T06:00:52;7.70;;;3.40;;
21258;SDS011;10787;53.364;-1.480;2024-02-26T06:03:36;8.33;;;3.67;;
21258;SDS011;10787;53.364;-1.480;2024-02-26T06:06:20;10.50;;;4.03;;
21258;SDS011;10787;53.364;-1.480;2024-02-26T06:09:06;8.83;;;4.40;;
21258;SDS011;10787;53.364;-1.480;2024-02-26T06:11:51;12.57;;;4.40;;
21258;SDS011;10787;53.364;-1.480;2024-02-26T06:14:35;9.37;;;4.57;;
21258;SDS011;10787;53.364;-1.480;2024-02-26T06:17:20;9.83;;;4.10;;
21258;SDS011;10787;53.364;-1.480;2024-02-26T06:20:05;9.47;;;4.00;;
21258;SDS011;10787;53.364;-1.480;2024-02-26T06:22:50;8.97;;;3.90;;
21258;SDS011;10787;53.364;-1.480;2024-02-26T06:25:35;9.50;;;4.00;;
21258;SDS011;10787;53.364;-1.480;2024-02-26T06:28:19;7.97;;;4.27;;
21258;SDS011;10787;53.364;-1.480;2024-02-26T06:31:03;8.70;;;4.27;;
21258;SDS011;10787;53.364;-1.480;2024-02-26T06:33:48;12.43;;;4.73;;
21258;SDS011;10787;53.364;-1.480;2024-02-26T06:36:33;8.50;;;4.53;;
21258;SDS011;10787;53.364;-1.480;2024-02-26T06:39:18;8.63;;;3.60;;
21258;SDS011;10787;53.364;-1.480;2024-02-26T06:42:03;8.37;;;4.07;;
21258;SDS011;10787;53.364;-1.480;2024-02-26T06:44:47;7.17;;;3.50;;
21258;SDS011;10787;53.364;-1.480;2024-02-26T06:47:31;10.23;;;3.73;;
21258;SDS011;10787;53.364;-1.480;2024-02-26T06:50:16;7.43;;;3.60;;
21258;SDS011;10787;53.364;-1.480;2024-02-26T06:53:01;10.13;;;4.20;;
21258;SDS011;10787;53.364;-1.480;2024-02-26T06:55:45;7.93;;;4.07;;
21258;SDS011;10787;53.364;-1.480;2024-02-26T06:58:30;12.40;;;4.60;;
21258;SDS011;10787;53.364;-1.480;2024-02-26T07:01:14;10.27;;;5.27;;
21258;SDS011;10787;53.364;-1.480;2024-02-26T07:03:59;11.90;;;5.10;;
21258;SDS011;10787;53.364;-1.480;2024-02-26T07:06:44;8.90;;;5.13;;
21258;SDS011;10787;53.364;-1.480;2024-02-26T07:09:30;9.90;;;5.53;;
21258;SDS011;10787;53.364;-1.480;2024-02-26T07:12:14;11.03;;;6.23;;
21258;SDS011;10787;53.364;-1.480;2024-02-26T07:14:59;10.57;;;5.80;;
21258;SDS011;10787;53.364;-1.480;2024-02-26T07:17:44;11.10;;;6.57;;
21258;SDS011;10787;53.364;-1.480;2024-02-26T07:20:31;13.67;;;6.60;;
21258;SDS011;10787;53.364;-1.480;2024-02-26T07:23:15;11.67;;;6.53;;
21258;SDS011;10787;53.364;-1.480;2024-02-26T07:26:00;13.03;;;7.40;;
21258;SDS011;10787;53.364;-1.480;2024-02-26T07:28:44;18.10;;;7.87;;
21258;SDS011;10787;53.364;-1.480;2024-02-26T07:31:28;13.23;;;7.30;;
21258;SDS011;10787;53.364;-1.480;2024-02-26T07:34:12;12.73;;;7.20;;
21258;SDS011;10787;53.364;-1.480;2024-02-26T07:36:57;11.70;;;6.77;;
21258;SDS011;10787;53.364;-1.480;2024-02-26T07:39:41;12.67;;;7.00;;
21258;SDS011;10787;53.364;-1.480;2024-02-26T07:42:25;10.77;;;6.03;;
21258;SDS011;10787;53.364;-1.480;2024-02-26T07:45:10;16.67;;;6.80;;
21258;SDS011;10787;53.364;-1.480;2024-02-26T07:47:54;11.00;;;5.77;;
21258;SDS011;10787;53.364;-1.480;2024-02-26T07:50:39;9.73;;;5.10;;
21258;SDS011;10787;53.364;-1.480;2024-02-26T07:53:24;11.57;;;5.30;;
21258;SDS011;10787;53.364;-1.480;2024-02-26T07:56:09;9.13;;;4.63;;
21258;SDS011;10787;53.364;-1.480;2024-02-26T07:58:53;8.90;;;4.03;;
21258;SDS011;10787;53.364;-1.480;2024-02-26T08:01:37;9.67;;;3.97;;
21258;SDS011;10787;53.364;-1.480;2024-02-26T08:04:23;8.20;;;4.03;;
21258;SDS011;10787;53.364;-1.480;2024-02-26T08:07:07;10.90;;;5.00;;
21258;SDS011;10787;53.364;-1.480;2024-02-26T08:09:51;11.87;;;3.70;;
21258;SDS011;10787;53.364;-1.480;2024-02-26T08:12:36;7.70;;;3.80;;
21258;SDS011;10787;53.364;-1.480;2024-02-26T08:15:20;9.33;;;4.00;;
21258;SDS011;10787;53.364;-1.480;2024-02-26T08:18:05;8.87;;;4.00;;
21258;SDS011;10787;53.364;-1.480;2024-02-26T08:20:49;7.03;;;3.50;;
21258;SDS011;10787;53.364;-1.480;2024-02-26T08:23:33;9.37;;;4.00;;
21258;SDS011;10787;53.364;-1.480;2024-02-26T08:26:18;7.03;;;3.97;;
21258;SDS011;10787;53.364;-1.480;2024-02-26T08:29:04;11.70;;;4.00;;
21258;SDS011;10787;53.364;-1.480;2024-02-26T08:31:48;8.20;;;3.80;;
21258;SDS011;10787;53.364;-1.480;2024-02-26T08:34:35;12.47;;;4.10;;
21258;SDS011;10787;53.364;-1.480;2024-02-26T08:37:19;9.40;;;3.93;;
21258;SDS011;10787;53.364;-1.480;2024-02-26T08:40:03;9.43;;;3.83;;
21258;SDS011;10787;53.364;-1.480;2024-02-26T08:42:48;8.10;;;4.07;;
21258;SDS011;10787;53.364;-1.480;2024-02-26T08:45:32;11.50;;;4.13;;
21258;SDS011;10787;53.364;-1.480;2024-02-26T08:48:17;9.33;;;4.40;;
21258;SDS011;10787;53.364;-1.480;2024-02-26T08:51:04;13.30;;;4.40;;
21258;SDS011;10787;53.364;-1.480;2024-02-26T08:53:52;6.83;;;4.17;;
21258;SDS011;10787;53.364;-1.480;2024-02-26T08:56:37;7.60;;;3.93;;
21258;SDS011;10787;53.364;-1.480;2024-02-26T08:59:22;10.87;;;4.80;;
21258;SDS011;10787;53.364;-1.480;2024-02-26T09:02:07;8.17;;;4.07;;
21258;SDS011;10787;53.364;-1.480;2024-02-26T09:04:52;8.50;;;3.93;;
21258;SDS011;10787;53.364;-1.480;2024-02-26T09:07:38;9.23;;;3.47;;
21258;SDS011;10787;53.364;-1.480;2024-02-26T09:10:22;9.60;;;3.80;;
21258;SDS011;10787;53.364;-1.480;2024-02-26T09:13:06;6.80;;;3.80;;
21258;SDS011;10787;53.364;-1.480;2024-02-26T09:15:51;7.83;;;3.40;;
21258;SDS011;10787;53.364;-1.480;2024-02-26T09:18:35;8.17;;;3.60;;
21258;SDS011;10787;53.364;-1.480;2024-02-26T09:21:19;6.27;;;3.13;;
21258;SDS011;10787;53.364;-1.480;2024-02-26T09:24:07;7.30;;;3.10;;
21258;SDS011;10787;53.364;-1.480;2024-02-26T09:26:51;7.40;;;3.03;;
21258;SDS011;10787;53.364;-1.480;2024-02-26T09:29:35;6.43;;;3.03;;
21258;SDS011;10787;53.364;-1.480;2024-02-26T09:32:19;6.23;;;3.20;;
21258;SDS011;10787;53.364;-1.480;2024-02-26T09:35:04;7.47;;;3.50;;
21258;SDS011;10787;53.364;-1.480;2024-02-26T09:37:49;6.10;;;3.17;;
21258;SDS011;10787;53.364;-1.480;2024-02-26T09:40:34;5.00;;;2.70;;
21258;SDS011;10787;53.364;-1.480;2024-02-26T09:43:21;6.37;;;2.70;;
21258;SDS011;10787;53.364;-1.480;2024-02-26T09:46:09;7.50;;;2.50;;
21258;SDS011;10787;53.364;-1.480;2024-02-26T09:48:53;6.57;;;2.40;;
21258;SDS011;10787;53.364;-1.480;2024-02-26T09:51:39;6.47;;;2.60;;
21258;SDS011;10787;53.364;-1.480;2024-02-26T09:54:23;4.40;;;1.77;;
21258;SDS011;10787;53.364;-1.480;2024-02-26T09:57:09;5.80;;;1.50;;
21258;SDS011;10787;53.364;-1.480;2024-02-26T09:59:59;4.27;;;1.70;;
21258;SDS011;10787;53.364;-1.480;2024-02-26T10:02:49;3.93;;;1.47;;
21258;SDS011;10787;53.364;-1.480;2024-02-26T10:05:35;4.03;;;1.50;;
21258;SDS011;10787;53.364;-1.480;2024-02-26T10:08:21;3.07;;;1.40;;
21258;SDS011;10787;53.364;-1.480;2024-02-26T10:11:09;4.20;;;1.50;;
21258;SDS011;10787;53.364;-1.480;2024-02-26T10:13:54;3.00;;;1.20;;
21258;SDS011;10787;53.364;-1.480;2024-02-26T10:16:39;4.07;;;1.40;;
21258;SDS011;10787;53.364;-1.480;2024-02-26T10:19:27;5.63;;;1.20;;
21258;SDS011;10787;53.364;-1.480;2024-02-26T10:22:13;3.67;;;1.23;;
21258;SDS011;10787;53.364;-1.480;2024-02-26T10:24:57;2.90;;;1.30;;
21258;SDS011;10787;53.364;-1.480;2024-02-26T10:27:41;2.63;;;1.57;;
21258;SDS011;10787;53.364;-1.480;2024-02-26T10:30:26;4.73;;;1.23;;
21258;SDS011;10787;53.364;-1.480;2024-02-26T10:33:12;3.37;;;1.20;;
21258;SDS011;10787;53.364;-1.480;2024-02-26T10:35:59;5.20;;;1.40;;
21258;SDS011;10787;53.364;-1.480;2024-02-26T10:38:43;1.47;;;1.00;;
21258;SDS011;10787;53.364;-1.480;2024-02-26T10:41:27;3.17;;;1.20;;
21258;SDS011;10787;53.364;-1.480;2024-02-26T10:44:12;3.40;;;1.07;;
21258;SDS011;10787;53.364;-1.480;2024-02-26T10:46:57;5.00;;;1.40;;
21258;SDS011;10787;53.364;-1.480;2024-02-26T10:49:45;3.00;;;1.20;;
21258;SDS011;10787;53.364;-1.480;2024-02-26T10:52:33;2.37;;;1.20;;
21258;SDS011;10787;53.364;-1.480;2024-02-26T10:55:18;3.57;;;1.40;;
21258;SDS011;10787;53.364;-1.480;2024-02-26T10:58:06;3.53;;;1.33;;
21258;SDS011;10787;53.364;-1.480;2024-02-26T11:00:52;5.60;;;1.60;;
21258;SDS011;10787;53.364;-1.480;2024-02-26T11:03:37;4.87;;;1.50;;
21258;SDS011;10787;53.364;-1.480;2024-02-26T11:06:22;4.53;;;1.30;;
21258;SDS011;10787;53.364;-1.480;2024-02-26T11:09:10;4.03;;;1.87;;
21258;SDS011;10787;53.364;-1.480;2024-02-26T11:11:59;6.43;;;1.50;;
21258;SDS011;10787;53.364;-1.480;2024-02-26T11:14:45;5.27;;;1.60;;
21258;SDS011;10787;53.364;-1.480;2024-02-26T11:17:30;3.73;;;1.50;;
21258;SDS011;10787;53.364;-1.480;2024-02-26T11:20:16;6.23;;;1.70;;
21258;SDS011;10787;53.364;-1.480;2024-02-26T11:23:03;5.90;;;1.53;;
21258;SDS011;10787;53.364;-1.480;2024-02-26T11:25:47;5.07;;;1.70;;
21258;SDS011;10787;53.364;-1.480;2024-02-26T11:28:34;5.37;;;1.70;;
21258;SDS011;10787;53.364;-1.480;2024-02-26T11:31:20;6.00;;;1.80;;
21258;SDS011;10787;53.364;-1.480;2024-02-26T11:34:10;7.17;;;1.63;;
21258;SDS011;10787;53.364;-1.480;2024-02-26T11:36:55;4.37;;;1.60;;
21258;SDS011;10787;53.364;-1.480;2024-02-26T11:39:40;4.80;;;1.70;;
21258;SDS011;10787;53.364;-1.480;2024-02-26T11:42:25;3.43;;;1.30;;
21258;SDS011;10787;53.364;-1.480;2024-02-26T11:48:22;4.97;;;1.40;;
21258;SDS011;10787;53.364;-1.480;2024-02-26T11:51:07;4.77;;;1.60;;
21258;SDS011;10787;53.364;-1.480;2024-02-26T11:53:54;4.23;;;1.50;;
21258;SDS011;10787;53.364;-1.480;2024-02-26T11:56:40;9.97;;;1.90;;
21258;SDS011;10787;53.364;-1.480;2024-02-26T11:59:37;5.23;;;1.53;;
21258;SDS011;10787;53.364;-1.480;2024-02-26T12:05:32;5.53;;;1.50;;
21258;SDS011;10787;53.364;-1.480;2024-02-26T12:08:17;3.97;;;1.90;;
21258;SDS011;10787;53.364;-1.480;2024-02-26T12:11:14;4.67;;;1.60;;
21258;SDS011;10787;53.364;-1.480;2024-02-26T12:13:59;8.50;;;1.60;;
21258;SDS011;10787;53.364;-1.480;2024-02-26T12:16:44;3.47;;;1.40;;
21258;SDS011;10787;53.364;-1.480;2024-02-26T12:19:28;4.87;;;1.30;;
21258;SDS011;10787;53.364;-1.480;2024-02-26T12:22:14;8.50;;;1.40;;
21258;SDS011;10787;53.364;-1.480;2024-02-26T12:24:59;5.90;;;1.13;;
21258;SDS011;10787;53.364;-1.480;2024-02-26T12:27:45;6.70;;;1.60;;
21258;SDS011;10787;53.364;-1.480;2024-02-26T12:30:29;8.13;;;1.47;;
21258;SDS011;10787;53.364;-1.480;2024-02-26T12:33:14;5.10;;;1.38;;
21258;SDS011;10787;53.364;-1.480;2024-02-26T12:35:59;3.20;;;1.30;;
21258;SDS011;10787;53.364;-1.480;2024-02-26T12:38:44;5.85;;;1.35;;
21258;SDS011;10787;53.364;-1.480;2024-02-26T12:41:28;4.83;;;1.63;;
21258;SDS011;10787;53.364;-1.480;2024-02-26T12:44:18;3.97;;;1.20;;
21258;SDS011;10787;53.364;-1.480;2024-02-26T12:47:09;5.23;;;1.30;;
21258;SDS011;10787;53.364;-1.480;2024-02-26T12:49:56;7.20;;;1.40;;
21258;SDS011;10787;53.364;-1.480;2024-02-26T12:52:42;4.83;;;1.57;;
21258;SDS011;10787;53.364;-1.480;2024-02-26T12:55:28;4.40;;;1.23;;
21258;SDS011;10787;53.364;-1.480;2024-02-26T12:58:14;3.00;;;1.40;;
21258;SDS011;10787;53.364;-1.480;2024-02-26T13:00:59;4.90;;;1.57;;
21258;SDS011;10787;53.364;-1.480;2024-02-26T13:03:44;2.85;;;1.30;;
21258;SDS011;10787;53.364;-1.480;2024-02-26T13:06:28;5.40;;;1.45;;
21258;SDS011;10787;53.364;-1.480;2024-02-26T13:09:13;3.00;;;1.20;;
21258;SDS011;10787;53.364;-1.480;2024-02-26T13:11:58;2.15;;;1.00;;
21258;SDS011;10787;53.364;-1.480;2024-02-26T13:14:43;5.53;;;0.93;;
21258;SDS011;10787;53.364;-1.480;2024-02-26T13:17:27;2.72;;;1.13;;
21258;SDS011;10787;53.364;-1.480;2024-02-26T13:20:25;3.07;;;1.00;;
21258;SDS011;10787;53.364;-1.480;2024-02-26T13:23:13;2.47;;;0.97;;
21258;SDS011;10787;53.364;-1.480;2024-02-26T13:25:58;4.00;;;1.10;;
21258;SDS011;10787;53.364;-1.480;2024-02-26T13:28:42;3.85;;;1.10;;
21258;SDS011;10787;53.364;-1.480;2024-02-26T13:31:27;3.22;;;1.20;;
21258;SDS011;10787;53.364;-1.480;2024-02-26T13:34:22;2.80;;;1.20;;
21258;SDS011;10787;53.364;-1.480;2024-02-26T13:37:08;2.28;;;1.13;;
21258;SDS011;10787;53.364;-1.480;2024-02-26T13:39:53;2.03;;;0.93;;
21258;SDS011;10787;53.364;-1.480;2024-02-26T13:42:37;4.32;;;0.98;;
21258;SDS011;10787;53.364;-1.480;2024-02-26T13:45:22;5.07;;;1.10;;
21258;SDS011;10787;53.364;-1.480;2024-02-26T13:48:07;1.95;;;0.82;;
21258;SDS011;10787;53.364;-1.480;2024-02-26T13:50:53;3.88;;;1.10;;
21258;SDS011;10787;53.364;-1.480;2024-02-26T13:53:37;3.75;;;1.25;;
21258;SDS011;10787;53.364;-1.480;2024-02-26T13:56:21;3.85;;;1.33;;
21258;SDS011;10787;53.364;-1.480;2024-02-26T13:59:05;3.53;;;1.40;;
21258;SDS011;10787;53.364;-1.480;2024-02-26T14:01:50;4.90;;;1.63;;
21258;SDS011;10787;53.364;-1.480;2024-02-26T14:04:36;2.63;;;1.00;;
21258;SDS011;10787;53.364;-1.480;2024-02-26T14:07:21;2.97;;;1.10;;
21258;SDS011;10787;53.364;-1.480;2024-02-26T14:10:06;2.25;;;1.00;;
21258;SDS011;10787;53.364;-1.480;2024-02-26T14:12:52;3.28;;;0.98;;
21258;SDS011;10787;53.364;-1.480;2024-02-26T14:15:36;1.08;;;0.73;;
21258;SDS011;10787;53.364;-1.480;2024-02-26T14:18:22;2.85;;;1.20;;
21258;SDS011;10787;53.364;-1.480;2024-02-26T14:21:07;5.78;;;1.17;;
21258;SDS011;10787;53.364;-1.480;2024-02-26T14:23:51;4.80;;;1.00;;
21258;SDS011;10787;53.364;-1.480;2024-02-26T14:26:36;5.35;;;1.00;;
21258;SDS011;10787;53.364;-1.480;2024-02-26T14:29:20;3.97;;;1.52;;
21258;SDS011;10787;53.364;-1.480;2024-02-26T14:32:04;2.15;;;1.10;;
21258;SDS011;10787;53.364;-1.480;2024-02-26T14:34:49;7.63;;;1.30;;
21258;SDS011;10787;53.364;-1.480;2024-02-26T14:37:33;2.97;;;1.23;;
21258;SDS011;10787;53.364;-1.480;2024-02-26T14:40:18;2.53;;;1.00;;
21258;SDS011;10787;53.364;-1.480;2024-02-26T14:43:02;5.90;;;1.15;;
21258;SDS011;10787;53.364;-1.480;2024-02-26T14:45:48;2.28;;;0.88;;
21258;SDS011;10787;53.364;-1.480;2024-02-26T14:48:33;5.13;;;1.00;;
21258;SDS011;10787;53.364;-1.480;2024-02-26T14:51:17;4.88;;;1.08;;
21258;SDS011;10787;53.364;-1.480;2024-02-26T14:54:02;6.43;;;1.42;;
21258;SDS011;10787;53.364;-1.480;2024-02-26T14:56:46;4.88;;;1.20;;
21258;SDS011;10787;53.364;-1.480;2024-02-26T14:59:32;6.35;;;1.20;;
21258;SDS011;10787;53.364;-1.480;2024-02-26T15:02:17;6.32;;;1.30;;
21258;SDS011;10787;53.364;-1.480;2024-02-26T15:05:01;3.17;;;0.95;;
21258;SDS011;10787;53.364;-1.480;2024-02-26T15:07:46;2.75;;;0.80;;
21258;SDS011;10787;53.364;-1.480;2024-02-26T15:10:30;5.53;;;1.13;;
21258;SDS011;10787;53.364;-1.480;2024-02-26T15:13:14;7.63;;;1.33;;
21258;SDS011;10787;53.364;-1.480;2024-02-26T15:15:59;6.75;;;1.27;;
21258;SDS011;10787;53.364;-1.480;2024-02-26T15:18:44;4.57;;;1.15;;
21258;SDS011;10787;53.364;-1.480;2024-02-26T15:21:28;4.93;;;1.00;;
21258;SDS011;10787;53.364;-1.480;2024-02-26T15:24:13;3.10;;;0.90;;
21258;SDS011;10787;53.364;-1.480;2024-02-26T15:27:00;1.42;;;0.70;;
21258;SDS011;10787;53.364;-1.480;2024-02-26T15:29:43;3.60;;;0.70;;
21258;SDS011;10787;53.364;-1.480;2024-02-26T15:32:28;2.57;;;0.97;;
21258;SDS011;10787;53.364;-1.480;2024-02-26T15:35:12;2.17;;;0.90;;
21258;SDS011;10787;53.364;-1.480;2024-02-26T15:37:57;3.87;;;0.90;;
21258;SDS011;10787;53.364;-1.480;2024-02-26T15:40:41;3.58;;;1.02;;
21258;SDS011;10787;53.364;-1.480;2024-02-26T15:43:26;2.13;;;1.08;;
21258;SDS011;10787;53.364;-1.480;2024-02-26T15:46:10;3.30;;;1.00;;
21258;SDS011;10787;53.364;-1.480;2024-02-26T15:48:57;4.57;;;0.85;;
21258;SDS011;10787;53.364;-1.480;2024-02-26T15:51:42;3.15;;;1.00;;
21258;SDS011;10787;53.364;-1.480;2024-02-26T15:54:26;2.92;;;1.00;;
21258;SDS011;10787;53.364;-1.480;2024-02-26T15:57:13;11.52;;;2.00;;
21258;SDS011;10787;53.364;-1.480;2024-02-26T16:00:00;3.13;;;1.00;;
21258;SDS011;10787;53.364;-1.480;2024-02-26T16:02:46;23.38;;;2.90;;
21258;SDS011;10787;53.364;-1.480;2024-02-26T16:05:32;5.32;;;1.17;;
21258;SDS011;10787;53.364;-1.480;2024-02-26T16:08:17;4.05;;;0.95;;
21258;SDS011;10787;53.364;-1.480;2024-02-26T16:11:04;2.53;;;1.00;;
21258;SDS011;10787;53.364;-1.480;2024-02-26T16:13:50;5.63;;;1.88;;
21258;SDS011;10787;53.364;-1.480;2024-02-26T16:16:58;7.13;;;3.17;;
21258;SDS011;10787;53.364;-1.480;2024-02-26T16:19:48;3.70;;;2.15;;
21258;SDS011;10787;53.364;-1.480;2024-02-26T16:22:32;4.35;;;1.70;;